Automated Weather Station

Magsaysay, Infanta, Quezon


Readings

as of November 11, 2016 04:01 PM
Wind Speed
3.4 mm
Rainfall Amount
0.14 mm
Rainfall Intensity
11.3 mm
Air Temperature
mm
Wind Direction
96 mm
Air Humidity
97.7 mm

Data Source: PREDICT (Advanced Science and Technology Institute)

12 HOUR DATA

PREVIOUS DATA

From
To
DateTime Wind Speed Rain Amount Rain Intensity Air Temperature Air Pressure Wind Direction Air Humidity
October 28, 2013 10:00 AM 0 0.01 mm 0 20.1 934.83 0 93.1
October 28, 2013 09:45 AM 0 0 mm 0 19.7 934.97 0 94.1
October 28, 2013 09:30 AM 0 0.01 mm 0 19.9 935.23 0 94.4
October 28, 2013 09:15 AM 0 0 mm 0 20 934.83 0 94.4
October 28, 2013 09:00 AM 0 0 mm 0 19.8 935.1 0 94.2
October 28, 2013 08:45 AM 0 0.01 mm 0 19.6 934.83 0 94.2
October 28, 2013 08:30 AM 0 0 mm 0 19.8 934.97 0 94.2
October 28, 2013 08:15 AM 0 0 mm 0 20 934.57 0 94.1
October 28, 2013 08:00 AM 0 0 mm 0 20 934.43 0 93.8
October 28, 2013 07:45 AM 0 0.01 mm 0 19.9 934.43 0 92.1
October 28, 2013 07:30 AM 11.8 0 mm 0 20.5 934.3 21 91.4
October 28, 2013 07:15 AM 0 0 mm 0 20.4 934.03 0 91.8
October 28, 2013 07:00 AM 0 0 mm 0 20.3 934.03 0 91.6
October 28, 2013 06:45 AM 0 0 mm 0 20.1 933.63 0 90.5
October 28, 2013 06:30 AM 9.6 0 mm 0 20 933.77 27 89.7
October 28, 2013 06:15 AM 5.5 0 mm 0 19.6 933.5 39 89.2
October 28, 2013 06:00 AM 0 0 mm 0 20 933.23 0 91.1
October 28, 2013 05:45 AM 0 0 mm 0 19.7 932.83 0 88.6
October 28, 2013 05:30 AM 8.9 0 mm 0 19.8 932.7 32 92.3
October 28, 2013 05:15 AM 0 0 mm 0 19.7 932.43 0 92.2
October 28, 2013 05:00 AM 0 0 mm 0 19.7 932.43 0 92.6
October 28, 2013 04:45 AM 9.8 0 mm 0 19.7 932.3 77 93
October 28, 2013 04:30 AM 0 0 mm 0 19.7 932.17 0 93.2
October 28, 2013 04:15 AM 0 0 mm 0 19.8 932.03 0 93.4
October 28, 2013 04:00 AM 0 0 mm 0 19.8 931.9 0 93.3
October 28, 2013 03:45 AM 0 0 mm 0 19.8 932.03 0 93.3
October 28, 2013 03:30 AM 11.1 0 mm 0 19.8 932.03 47 93.5
October 28, 2013 03:15 AM 0 0 mm 0 19.8 932.03 0 93.5
October 28, 2013 03:00 AM 0 0 mm 0 19.8 932.03 0 93.6
October 28, 2013 02:45 AM 7.3 0 mm 0 19.8 932.03 52 93.6